Time;durP1;ratioP1;P1;durP2;ratioP2;P2;SDS_P1;SDS_P2;PMS_P1;PMS_P2;Temp;Humidity;BMP_temperature;BMP_pressure;BME280_temperature;BME280_humidity;BME280_pressure;Samples;Min_cycle;Max_cycle;Signal;HPM_P1;HPM_P2
2022/10/19 00:04:27;;;;;;;0.85;0.82;;;;;;;11.37;66.50;101154.88;18240182;32;20153;-59
2022/10/19 00:14:30;;;;;;;2.58;2.37;;;;;;;11.32;66.15;101137.41;18240001;32;20086;-59
2022/10/19 00:24:35;;;;;;;1.35;1.30;;;;;;;11.35;65.90;101126.97;18237751;32;20095;-59
2022/10/19 00:34:38;;;;;;;1.40;0.80;;;;;;;11.25;66.40;101118.22;18238577;32;20094;-59
2022/10/19 00:45:05;;;;;;;1.10;1.10;;;;;;;11.27;66.55;101115.59;18237896;32;20153;-59
2022/10/19 00:55:09;;;;;;;0.65;0.65;;;;;;;11.31;66.88;101094.72;18238132;32;20117;-59
2022/10/19 01:05:14;;;;;;;1.67;1.45;;;;;;;11.35;66.74;101087.75;18245488;32;20094;-59
2022/10/19 01:15:26;;;;;;;1.73;1.08;;;;;;;11.49;66.90;101078.28;18245384;32;20085;-59
2022/10/19 01:25:39;;;;;;;0.73;0.73;;;;;;;11.58;67.91;101058.25;18244905;32;20121;-59
2022/10/19 01:35:46;;;;;;;2.50;1.37;;;;;;;11.76;67.10;101040.03;18233738;32;20136;-59
2022/10/19 01:45:52;;;;;;;7.72;1.87;;;;;;;11.75;66.86;101051.31;18235979;32;20133;-59
2022/10/19 01:55:58;;;;;;;2.30;2.03;;;;;;;11.89;66.16;101048.75;18244281;32;20086;-59
2022/10/19 02:06:02;;;;;;;0.77;0.62;;;;;;;11.55;66.47;101037.31;18244787;32;20097;-59
2022/10/19 02:16:10;;;;;;;1.55;1.45;;;;;;;11.37;67.27;101044.19;18243717;32;20147;-59
2022/10/19 02:26:14;;;;;;;1.75;0.65;;;;;;;11.30;66.95;101048.53;18243435;32;20082;-59
2022/10/19 02:36:19;;;;;;;0.50;0.50;;;;;;;11.13;67.75;101037.09;18244136;32;20144;-59
2022/10/19 02:46:27;;;;;;;0.57;0.57;;;;;;;11.19;66.82;101024.97;18243181;32;20103;-59
2022/10/19 02:56:33;;;;;;;0.88;0.88;;;;;;;10.82;68.77;101027.37;18242703;32;20086;-59
2022/10/19 03:06:36;;;;;;;1.73;1.60;;;;;;;11.34;68.55;101028.50;18251931;32;20628;-60
2022/10/19 03:16:40;;;;;;;1.40;1.25;;;;;;;11.06;70.83;101018.81;18257793;32;20150;-59
2022/10/19 03:26:44;;;;;;;7.00;1.75;;;;;;;11.38;68.91;101038.09;18240893;32;20089;-59
2022/10/19 03:36:48;;;;;;;0.50;0.50;;;;;;;11.54;67.84;101046.03;18242413;32;20113;-59
2022/10/19 03:46:51;;;;;;;1.10;1.10;;;;;;;11.56;67.13;101045.16;18241208;32;20111;-59
2022/10/19 03:56:56;;;;;;;1.05;0.70;;;;;;;11.31;67.79;101033.75;18240904;32;20134;-59
2022/10/19 04:06:59;;;;;;;1.87;1.40;;;;;;;11.03;68.72;101042.28;18240355;32;20098;-59
2022/10/19 04:17:05;;;;;;;2.05;1.23;;;;;;;11.29;67.03;101045.94;18239842;32;20097;-59
2022/10/19 04:27:08;;;;;;;2.95;2.67;;;;;;;11.21;66.99;101038.03;18239027;32;20123;-59
2022/10/19 04:37:12;;;;;;;0.60;0.60;;;;;;;11.04;66.56;101035.31;18266178;32;20092;-59
2022/10/19 04:47:19;;;;;;;0.70;0.65;;;;;;;10.71;66.58;101029.00;18246254;32;20438;-59
2022/10/19 04:57:24;;;;;;;0.90;0.90;;;;;;;10.65;66.18;101022.88;18245769;32;20108;-59
2022/10/19 05:07:28;;;;;;;0.77;0.77;;;;;;;10.51;65.97;101051.50;18246525;32;20109;-59
2022/10/19 05:17:33;;;;;;;0.73;0.73;;;;;;;10.45;65.96;101046.22;18245215;32;20090;-59
2022/10/19 05:27:37;;;;;;;0.60;0.60;;;;;;;10.38;66.18;101044.38;18244635;32;20471;-59
2022/10/19 05:37:45;;;;;;;1.12;1.02;;;;;;;10.00;67.81;101061.41;18243758;32;20086;-59
2022/10/19 05:47:49;;;;;;;0.82;0.82;;;;;;;10.02;67.83;101090.97;18244188;32;20090;-59
2022/10/19 05:57:54;;;;;;;8.23;2.30;;;;;;;10.25;66.97;101091.22;18241813;32;20094;-59
2022/10/19 06:07:58;;;;;;;3.35;1.37;;;;;;;10.37;67.96;101105.25;18244399;32;20116;-59
2022/10/19 06:18:03;;;;;;;0.65;0.65;;;;;;;10.67;68.33;101083.81;18266691;32;20089;-59
2022/10/19 06:28:07;;;;;;;1.65;1.40;;;;;;;11.23;67.89;101092.06;18257217;32;20112;-59
2022/10/19 06:38:12;;;;;;;0.80;0.80;;;;;;;12.10;68.61;101102.06;18254760;32;20116;-59
2022/10/19 06:48:15;;;;;;;0.40;0.40;;;;;;;13.51;67.82;101100.31;18252858;32;20426;-59
2022/10/19 06:58:20;;;;;;;1.05;0.40;;;;;;;15.51;63.23;101103.28;18241673;32;20439;-60
2022/10/19 07:08:23;;;;;;;0.20;0.20;;;;;;;18.32;57.88;101113.53;18242145;32;20097;-60
2022/10/19 07:18:28;;;;;;;0.13;0.13;;;;;;;19.04;54.53;101131.19;18291721;32;20175;-60
2022/10/19 07:28:31;;;;;;;0.93;0.55;;;;;;;20.15;51.88;101133.44;18303863;32;20125;-60
2022/10/19 07:38:36;;;;;;;0.17;0.17;;;;;;;20.58;49.31;101142.69;18301452;32;20135;-60
2022/10/19 07:48:39;;;;;;;0.10;0.10;;;;;;;20.43;48.64;101149.31;18302696;32;20094;-60
2022/10/19 07:58:44;;;;;;;0.20;0.20;;;;;;;20.33;47.93;101146.13;18302616;32;20082;-59
2022/10/19 08:08:48;;;;;;;0.08;0.08;;;;;;;20.57;47.24;101130.31;18296673;32;20159;-61
2022/10/19 08:18:57;;;;;;;0.20;0.20;;;;;;;20.70;47.10;101145.84;18301004;32;20506;-60
2022/10/19 08:29:01;;;;;;;0.88;0.45;;;;;;;20.12;48.86;101146.78;18300795;32;20112;-59
2022/10/19 08:39:08;;;;;;;0.13;0.13;;;;;;;20.62;47.03;101149.63;18298199;32;20112;-60
2022/10/19 08:49:15;;;;;;;0.15;0.15;;;;;;;21.33;45.12;101148.16;18296747;32;20108;-60
2022/10/19 08:59:30;;;;;;;0.10;0.10;;;;;;;21.13;44.75;101144.41;18299937;32;20365;-60
2022/10/19 09:09:36;;;;;;;0.47;0.43;;;;;;;21.69;44.15;101137.16;18277655;32;20426;-60
2022/10/19 09:19:41;;;;;;;0.10;0.10;;;;;;;22.28;42.36;101124.25;18240054;32;20106;-60
2022/10/19 09:29:48;;;;;;;0.10;0.10;;;;;;;22.23;42.48;101134.22;18244491;32;20138;-60
2022/10/19 09:39:55;;;;;;;0.10;0.10;;;;;;;21.96;42.84;101136.16;18244429;32;20140;-60
2022/10/19 09:50:08;;;;;;;0.10;0.10;;;;;;;21.70;43.65;101141.53;18244772;32;20094;-60
2022/10/19 10:00:19;;;;;;;0.20;0.20;;;;;;;20.98;44.53;101134.34;18245172;32;20110;-60
2022/10/19 10:10:25;;;;;;;0.45;0.45;;;;;;;21.12;44.73;101124.09;18243865;32;20090;-60
2022/10/19 10:20:34;;;;;;;0.13;0.13;;;;;;;21.73;43.08;101109.56;18243601;32;20112;-59
2022/10/19 10:30:37;;;;;;;0.20;0.20;;;;;;;22.13;42.50;101104.47;18241512;32;20164;-60
2022/10/19 10:40:49;;;;;;;0.10;0.10;;;;;;;22.36;40.70;101093.84;18242741;32;20140;-60
2022/10/19 10:50:52;;;;;;;0.10;0.10;;;;;;;22.39;39.95;101085.75;18241354;32;20116;-60
2022/10/19 11:00:58;;;;;;;0.10;0.10;;;;;;;22.71;38.65;101076.44;18242370;32;20094;-60
2022/10/19 11:11:12;;;;;;;0.10;0.10;;;;;;;23.00;37.08;101071.66;18242343;32;20122;-60
2022/10/19 11:21:24;;;;;;;0.90;0.32;;;;;;;22.67;36.06;101068.66;18244338;32;212286;-60
2022/10/19 11:31:35;;;;;;;0.00;0.00;;;;;;;22.53;35.55;101051.47;18294178;32;20152;-60
2022/10/19 11:41:48;;;;;;;0.55;0.25;;;;;;;21.93;37.62;101046.81;18283368;32;20142;-60
2022/10/19 11:51:56;;;;;;;0.10;0.10;;;;;;;21.59;37.45;101026.81;18303983;32;20108;-60
2022/10/19 12:02:07;;;;;;;0.10;0.10;;;;;;;21.48;38.23;101030.75;18304757;32;20434;-59
2022/10/19 12:12:25;;;;;;;0.10;0.10;;;;;;;21.63;38.42;101016.00;18297974;32;20104;-60
2022/10/19 12:22:30;;;;;;;0.10;0.10;;;;;;;21.71;37.25;101007.75;18297866;32;20082;-60
2022/10/19 12:32:40;;;;;;;0.00;0.00;;;;;;;21.45;37.65;101001.66;18299927;32;20101;-60
2022/10/19 12:42:50;;;;;;;0.10;0.10;;;;;;;21.58;37.43;100990.56;18299039;32;20100;-60
2022/10/19 12:52:54;;;;;;;0.10;0.10;;;;;;;21.41;37.53;100973.47;18298838;32;20173;-60
2022/10/19 13:03:03;;;;;;;0.52;0.35;;;;;;;21.42;38.11;100983.19;18306762;32;20102;-60
2022/10/19 13:13:41;;;;;;;0.10;0.10;;;;;;;21.50;38.00;100977.59;18306043;32;20154;-60
2022/10/19 13:23:46;;;;;;;0.20;0.20;;;;;;;21.57;38.24;100972.91;18303445;32;20145;-60
2022/10/19 13:33:50;;;;;;;0.20;0.20;;;;;;;21.38;37.26;100981.56;18304334;32;20117;-60
2022/10/19 13:44:02;;;;;;;0.10;0.10;;;;;;;21.28;37.00;100986.34;18304316;32;20665;-60
2022/10/19 13:54:18;;;;;;;0.25;0.20;;;;;;;21.28;35.63;100986.34;18300049;32;20105;-60
2022/10/19 14:04:30;;;;;;;1.00;0.40;;;;;;;21.29;35.96;100997.84;18304611;32;20157;-60
2022/10/19 14:14:39;;;;;;;0.10;0.10;;;;;;;21.21;35.76;100988.38;18278948;32;20094;-60
2022/10/19 14:24:45;;;;;;;0.20;0.20;;;;;;;20.93;36.73;100991.22;18242536;32;20108;-60
2022/10/19 14:34:59;;;;;;;0.13;0.13;;;;;;;20.68;37.08;100980.56;18293625;32;20365;-60
2022/10/19 14:45:06;;;;;;;0.20;0.20;;;;;;;20.65;36.76;100990.34;18276131;32;20128;-60
2022/10/19 14:55:13;;;;;;;0.15;0.15;;;;;;;20.09;36.16;100992.22;18240716;32;20093;-60
2022/10/19 15:05:24;;;;;;;0.65;0.30;;;;;;;19.36;35.93;100990.94;18248806;32;20097;-60
2022/10/19 15:15:29;;;;;;;0.17;0.17;;;;;;;19.35;36.37;100989.19;18239341;32;20108;-60
2022/10/19 15:25:36;;;;;;;0.20;0.20;;;;;;;19.31;36.42;100982.25;18248844;32;20102;-60
2022/10/19 15:35:40;;;;;;;0.20;0.20;;;;;;;19.18;36.90;101003.81;18238971;32;20137;-60
2022/10/19 15:45:45;;;;;;;0.20;0.20;;;;;;;18.84;37.38;100994.13;18253463;32;20102;-60
2022/10/19 15:55:49;;;;;;;0.20;0.20;;;;;;;18.77;37.38;100981.97;18301784;32;20370;-60
2022/10/19 16:05:53;;;;;;;0.10;0.10;;;;;;;18.29;38.11;100995.53;18301240;32;20172;-60
2022/10/19 16:16:00;;;;;;;1.25;0.68;;;;;;;18.05;39.57;101035.75;18298467;32;20390;-60
2022/10/19 16:26:15;;;;;;;0.30;0.30;;;;;;;17.96;39.69;101026.25;18300077;32;20108;-60
2022/10/19 16:36:19;;;;;;;0.20;0.20;;;;;;;17.93;39.90;101043.03;18260630;32;20168;-60
2022/10/19 16:46:24;;;;;;;0.47;0.47;;;;;;;17.60;40.67;101051.66;18299438;32;20114;-59
2022/10/19 16:56:29;;;;;;;0.73;0.68;;;;;;;17.35;40.92;101059.22;18265518;32;20165;-60
2022/10/19 17:06:33;;;;;;;0.20;0.20;;;;;;;17.44;40.64;101084.53;18255852;32;20363;-60
2022/10/19 17:16:37;;;;;;;0.20;0.20;;;;;;;17.29;41.02;101094.50;18266678;32;20120;-60
2022/10/19 17:26:44;;;;;;;0.30;0.30;;;;;;;17.11;41.47;101092.22;18254749;32;20111;-60
2022/10/19 17:36:47;;;;;;;0.30;0.30;;;;;;;17.18;41.84;101105.25;18255160;32;20136;-59
2022/10/19 17:46:53;;;;;;;0.30;0.30;;;;;;;17.03;42.51;101134.56;18256151;32;20090;-60
2022/10/19 17:56:56;;;;;;;0.30;0.30;;;;;;;16.93;42.95;101147.00;18299305;32;20363;-59
2022/10/19 18:07:02;;;;;;;0.40;0.40;;;;;;;16.83;43.43;101132.22;18305690;32;20109;-60
2022/10/19 18:17:05;;;;;;;0.73;0.65;;;;;;;16.46;44.47;101139.81;18304911;32;20109;-60
2022/10/19 18:27:11;;;;;;;0.30;0.30;;;;;;;16.06;45.84;101164.94;18306488;32;20101;-59
2022/10/19 18:37:15;;;;;;;0.47;0.47;;;;;;;15.14;48.44;101188.72;18302409;32;20138;-60
2022/10/19 18:47:19;;;;;;;0.20;0.20;;;;;;;15.28;47.84;101167.53;18303603;32;20094;-59
2022/10/19 18:57:23;;;;;;;0.40;0.40;;;;;;;15.05;48.17;101181.75;18302365;32;20119;-59
2022/10/19 19:07:37;;;;;;;0.37;0.37;;;;;;;14.64;49.14;101211.81;18303083;32;20097;-59
2022/10/19 19:17:40;;;;;;;0.40;0.40;;;;;;;14.44;49.76;101220.69;18304398;32;20093;-60
2022/10/19 19:27:48;;;;;;;1.65;0.70;;;;;;;14.10;49.86;101205.97;18302081;32;20397;-59
2022/10/19 19:37:51;;;;;;;0.40;0.40;;;;;;;14.06;48.25;101205.97;18296215;32;20135;-59
2022/10/19 19:48:00;;;;;;;0.60;0.60;;;;;;;13.72;49.55;101231.44;18291549;32;20125;-59
2022/10/19 19:58:04;;;;;;;0.40;0.40;;;;;;;13.03;51.98;101233.16;18301873;32;20109;-59
2022/10/19 20:08:09;;;;;;;1.45;1.35;;;;;;;12.83;51.83;101254.13;18262725;32;20138;-59
2022/10/19 20:18:12;;;;;;;0.45;0.45;;;;;;;12.87;52.09;101263.72;18276502;32;20082;-59
2022/10/19 20:28:18;;;;;;;0.40;0.40;;;;;;;12.71;51.63;101275.03;18236557;32;20078;-59
2022/10/19 20:38:24;;;;;;;0.50;0.50;;;;;;;12.23;53.15;101282.72;18235191;32;20136;-60
2022/10/19 20:48:29;;;;;;;0.40;0.40;;;;;;;11.95;52.44;101291.25;18237332;32;20090;-59
2022/10/19 20:58:32;;;;;;;0.50;0.50;;;;;;;11.20;55.05;101306.34;18237460;32;20093;-60
2022/10/19 21:08:37;;;;;;;0.40;0.40;;;;;;;11.02;55.70;101314.00;18236952;32;20154;-59
2022/10/19 21:18:41;;;;;;;0.50;0.50;;;;;;;10.80;56.03;101311.13;18249722;32;20086;-59
2022/10/19 21:28:51;;;;;;;0.50;0.50;;;;;;;10.47;57.21;101317.72;18249571;32;20112;-59
2022/10/19 21:38:56;;;;;;;1.00;0.65;;;;;;;10.18;58.08;101326.00;18243766;32;20090;-59
2022/10/19 21:49:00;;;;;;;0.45;0.45;;;;;;;10.00;58.45;101335.28;18244733;32;20097;-59
2022/10/19 21:59:04;;;;;;;0.50;0.50;;;;;;;10.03;58.97;101334.47;18244544;32;20116;-59
2022/10/19 22:09:11;;;;;;;0.40;0.40;;;;;;;9.94;59.06;101341.28;18244149;32;20112;-59
2022/10/19 22:19:15;;;;;;;0.60;0.60;;;;;;;10.00;58.39;101346.59;18245304;32;20086;-59
2022/10/19 22:29:19;;;;;;;0.45;0.45;;;;;;;9.98;58.51;101337.88;18243315;32;20098;-59
2022/10/19 22:39:22;;;;;;;0.50;0.50;;;;;;;9.80;60.58;101338.47;18243265;32;20177;-59
2022/10/19 22:49:31;;;;;;;0.40;0.40;;;;;;;9.78;60.64;101353.22;18264501;32;20089;-59
2022/10/19 22:59:35;;;;;;;0.70;0.70;;;;;;;9.79;60.97;101347.16;18300818;32;20126;-59
2022/10/19 23:09:39;;;;;;;0.50;0.50;;;;;;;9.62;61.13;101339.03;18242377;32;20094;-59
2022/10/19 23:19:43;;;;;;;1.73;1.62;;;;;;;9.35;60.91;101358.56;18293483;32;20635;-59
2022/10/19 23:29:47;;;;;;;0.62;0.62;;;;;;;9.22;60.95;101353.97;18305011;32;20142;-59
2022/10/19 23:39:50;;;;;;;2.17;2.08;;;;;;;9.08;61.28;101359.78;18304013;32;20081;-58
2022/10/19 23:49:55;;;;;;;0.80;0.80;;;;;;;8.91;60.92;101363.78;18304457;32;20628;-59
2022/10/19 23:59:58;;;;;;;0.60;0.60;;;;;;;8.65;61.91;101379.75;18304169;32;20434;-58
